Time;durP1;ratioP1;P1;durP2;ratioP2;P2;SDS_P1;SDS_P2;PMS_P1;PMS_P2;Temp;Humidity;BMP_temperature;BMP_pressure;BME280_temperature;BME280_humidity;BME280_pressure;Samples;Min_cycle;Max_cycle;Signal;HPM_P1;HPM_P2
2022/10/09 00:04:25;;;;;;;14.43;7.38;;;;;;;;;;10302832;28;20034;-75
2022/10/09 00:09:25;;;;;;;17.77;8.32;;;;;;;;;;10303893;28;20124;-75
2022/10/09 00:14:26;;;;;;;13.68;7.65;;;;;;;;;;10303057;28;20033;-75
2022/10/09 00:19:26;;;;;;;11.27;7.68;;;;;;;;;;10302886;28;20108;-75
2022/10/09 00:24:26;;;;;;;14.70;8.00;;;;;;;;;;10311710;28;20436;-74
2022/10/09 00:29:26;;;;;;;13.70;7.70;;;;;;;;;;10303785;28;20137;-75
2022/10/09 00:34:27;;;;;;;29.08;14.82;;;;;;;;;;10303024;28;20050;-74
2022/10/09 00:39:27;;;;;;;12.38;7.38;;;;;;;;;;10302613;28;20022;-74
2022/10/09 00:44:46;;;;;;;17.23;8.82;;;;;;;;;;10327867;28;20022;-74
2022/10/09 00:49:47;;;;;;;17.75;8.18;;;;;;;;;;10316752;28;20559;-80
2022/10/09 00:54:47;;;;;;;19.35;8.68;;;;;;;;;;10300496;28;20029;-74
2022/10/09 00:59:47;;;;;;;20.30;9.07;;;;;;;;;;10302168;28;20034;-73
2022/10/09 01:04:47;;;;;;;16.15;8.65;;;;;;;;;;10300946;28;20755;-74
2022/10/09 01:09:54;;;;;;;17.92;8.85;;;;;;;;;;10301779;28;20133;-76
2022/10/09 01:14:57;;;;;;;17.15;8.07;;;;;;;;;;10315063;28;20394;-74
2022/10/09 01:20:17;;;;;;;15.40;8.80;;;;;;;;;;10301205;28;20631;-74
2022/10/09 01:25:22;;;;;;;15.10;7.05;;;;;;;;;;10325124;28;20046;-74
2022/10/09 01:30:22;;;;;;;16.80;9.20;;;;;;;;;;10285197;28;20376;-74
2022/10/09 01:35:23;;;;;;;14.65;8.55;;;;;;;;;;10300830;28;20049;-74
2022/10/09 01:40:24;;;;;;;17.90;8.13;;;;;;;;;;10300826;28;20026;-75
2022/10/09 01:45:24;;;;;;;15.95;8.23;;;;;;;;;;10294576;28;20027;-80
2022/10/09 01:50:26;;;;;;;19.73;9.02;;;;;;;;;;10297226;28;20022;-76
2022/10/09 01:55:26;;;;;;;16.70;9.27;;;;;;;;;;10300306;28;20049;-78
2022/10/09 02:00:29;;;;;;;16.70;8.55;;;;;;;;;;10298740;28;20029;-75
2022/10/09 02:05:30;;;;;;;19.60;9.15;;;;;;;;;;10296855;28;20117;-74
2022/10/09 02:10:30;;;;;;;16.48;10.82;;;;;;;;;;10297485;28;20037;-75
2022/10/09 02:15:36;;;;;;;17.25;9.90;;;;;;;;;;10321579;28;20022;-75
2022/10/09 02:20:38;;;;;;;17.40;9.35;;;;;;;;;;10301814;28;20421;-73
2022/10/09 02:25:38;;;;;;;13.10;8.75;;;;;;;;;;10322600;28;20051;-75
2022/10/09 02:30:55;;;;;;;16.00;8.60;;;;;;;;;;10298681;28;20041;-78
2022/10/09 02:35:56;;;;;;;16.83;9.85;;;;;;;;;;10299046;28;20018;-73
2022/10/09 02:40:57;;;;;;;14.73;9.63;;;;;;;;;;10324185;28;20505;-77
2022/10/09 02:45:57;;;;;;;14.57;8.75;;;;;;;;;;10299381;28;20106;-76
2022/10/09 02:50:58;;;;;;;18.17;9.52;;;;;;;;;;10322996;28;20048;-77
2022/10/09 02:55:58;;;;;;;14.32;8.85;;;;;;;;;;10298464;28;20109;-73
2022/10/09 03:00:59;;;;;;;14.57;9.23;;;;;;;;;;10320141;28;20125;-76
2022/10/09 03:06:09;;;;;;;15.25;9.45;;;;;;;;;;10297571;28;20023;-73
2022/10/09 03:11:10;;;;;;;20.42;9.80;;;;;;;;;;10305143;28;20039;-73
2022/10/09 03:16:12;;;;;;;16.52;8.32;;;;;;;;;;10307972;28;20022;-74
2022/10/09 03:21:13;;;;;;;20.73;9.40;;;;;;;;;;10306802;28;20042;-77
2022/10/09 03:26:16;;;;;;;16.00;9.45;;;;;;;;;;10305981;28;20411;-75
2022/10/09 03:31:17;;;;;;;17.58;9.30;;;;;;;;;;10304245;28;20026;-74
2022/10/09 03:36:17;;;;;;;20.38;9.82;;;;;;;;;;10302683;28;20026;-76
2022/10/09 03:41:18;;;;;;;20.00;9.05;;;;;;;;;;10303674;28;20022;-73
2022/10/09 03:46:18;;;;;;;15.48;9.65;;;;;;;;;;10305557;28;20027;-74
2022/10/09 03:51:18;;;;;;;17.43;10.23;;;;;;;;;;10302944;28;20026;-74
2022/10/09 03:56:18;;;;;;;15.90;10.65;;;;;;;;;;10305684;28;20504;-76
2022/10/09 04:01:19;;;;;;;16.92;9.63;;;;;;;;;;10305003;28;20030;-73
2022/10/09 04:06:19;;;;;;;24.27;9.73;;;;;;;;;;10306680;28;20022;-77
2022/10/09 04:11:19;;;;;;;23.65;10.18;;;;;;;;;;10291936;28;20041;-74
2022/10/09 04:16:19;;;;;;;14.27;7.10;;;;;;;;;;10296046;28;20026;-73
2022/10/09 04:21:20;;;;;;;10.63;6.85;;;;;;;;;;10327063;28;20081;-74
2022/10/09 04:26:20;;;;;;;9.73;5.55;;;;;;;;;;10303019;28;20113;-74
2022/10/09 04:31:20;;;;;;;8.98;5.53;;;;;;;;;;10302721;28;20039;-74
2022/10/09 04:36:21;;;;;;;11.23;7.00;;;;;;;;;;10298028;28;20035;-74
2022/10/09 04:41:21;;;;;;;10.10;6.77;;;;;;;;;;10302087;28;20038;-74
2022/10/09 04:46:22;;;;;;;10.70;6.38;;;;;;;;;;10326501;28;20425;-79
2022/10/09 04:51:22;;;;;;;8.77;5.35;;;;;;;;;;10298077;28;20022;-73
2022/10/09 04:56:23;;;;;;;9.18;6.47;;;;;;;;;;10304277;28;20022;-72
2022/10/09 05:01:24;;;;;;;12.40;6.60;;;;;;;;;;10302294;28;20102;-74
2022/10/09 05:06:24;;;;;;;11.30;7.13;;;;;;;;;;10300249;28;20030;-75
2022/10/09 05:11:25;;;;;;;14.05;6.90;;;;;;;;;;10304144;28;20045;-76
2022/10/09 05:16:26;;;;;;;16.48;6.47;;;;;;;;;;10304915;28;20014;-83
2022/10/09 05:21:27;;;;;;;12.40;6.88;;;;;;;;;;10293294;28;20022;-77
2022/10/09 05:26:27;;;;;;;14.60;7.33;;;;;;;;;;10301595;28;20050;-76
2022/10/09 05:31:28;;;;;;;20.43;8.17;;;;;;;;;;10283524;28;20420;-78
2022/10/09 05:36:28;;;;;;;12.77;6.80;;;;;;;;;;10299837;28;20102;-80
2022/10/09 05:41:29;;;;;;;12.48;6.53;;;;;;;;;;10271467;28;20151;-79
2022/10/09 05:46:29;;;;;;;13.60;8.40;;;;;;;;;;10279223;28;20030;-79
2022/10/09 05:51:30;;;;;;;14.50;6.90;;;;;;;;;;10272898;28;20043;-75
2022/10/09 05:56:31;;;;;;;17.08;8.77;;;;;;;;;;10286969;28;20027;-77
2022/10/09 06:01:33;;;;;;;15.93;7.75;;;;;;;;;;10289787;28;20038;-83
2022/10/09 06:06:35;;;;;;;22.85;8.02;;;;;;;;;;10297425;28;20034;-76
2022/10/09 06:11:35;;;;;;;14.02;7.57;;;;;;;;;;10295611;28;20085;-74
2022/10/09 06:16:37;;;;;;;17.90;9.68;;;;;;;;;;10295234;28;20029;-74
2022/10/09 06:21:37;;;;;;;35.22;12.60;;;;;;;;;;10311318;28;20548;-77
2022/10/09 06:26:38;;;;;;;31.13;12.37;;;;;;;;;;10277803;28;20094;-76
2022/10/09 06:31:38;;;;;;;23.10;11.00;;;;;;;;;;10313686;28;20039;-84
2022/10/09 06:36:38;;;;;;;23.30;11.70;;;;;;;;;;10291649;28;20045;-74
2022/10/09 06:41:38;;;;;;;17.73;10.00;;;;;;;;;;10286392;28;20037;-75
2022/10/09 06:46:40;;;;;;;23.90;13.23;;;;;;;;;;10303551;28;20030;-75
2022/10/09 06:51:40;;;;;;;21.55;9.40;;;;;;;;;;10306207;28;20036;-75
2022/10/09 06:56:40;;;;;;;19.63;10.40;;;;;;;;;;10307199;28;20690;-74
2022/10/09 07:01:40;;;;;;;17.65;10.05;;;;;;;;;;10305507;28;20026;-75
2022/10/09 07:06:43;;;;;;;19.38;10.68;;;;;;;;;;10302199;28;20031;-75
2022/10/09 07:11:44;;;;;;;24.27;10.32;;;;;;;;;;10299999;28;20027;-78
2022/10/09 07:16:46;;;;;;;27.10;11.05;;;;;;;;;;10299895;28;20470;-75
2022/10/09 07:21:47;;;;;;;20.30;10.55;;;;;;;;;;10301714;28;20026;-75
2022/10/09 07:26:47;;;;;;;13.20;9.30;;;;;;;;;;10307398;28;20197;-75
2022/10/09 07:31:48;;;;;;;23.47;9.53;;;;;;;;;;10330704;28;20084;-81
2022/10/09 07:36:48;;;;;;;17.33;10.10;;;;;;;;;;10302194;28;20084;-76
2022/10/09 07:41:50;;;;;;;15.73;10.32;;;;;;;;;;10310644;28;20030;-83
2022/10/09 07:46:50;;;;;;;24.40;9.77;;;;;;;;;;10304863;28;20074;-79
2022/10/09 07:51:50;;;;;;;16.43;9.43;;;;;;;;;;10303872;28;20118;-80
2022/10/09 07:56:51;;;;;;;19.20;9.60;;;;;;;;;;10303915;28;20046;-78
2022/10/09 08:01:51;;;;;;;21.80;10.65;;;;;;;;;;10305187;28;20416;-80
2022/10/09 08:06:51;;;;;;;20.45;10.45;;;;;;;;;;10302297;28;20576;-79
2022/10/09 08:11:51;;;;;;;20.13;11.90;;;;;;;;;;10297993;28;20058;-76
2022/10/09 08:16:52;;;;;;;23.23;9.43;;;;;;;;;;10322685;28;20027;-75
2022/10/09 08:21:52;;;;;;;13.52;7.93;;;;;;;;;;10303340;28;20433;-79
2022/10/09 08:26:53;;;;;;;15.32;7.45;;;;;;;;;;10302808;28;20076;-79
2022/10/09 08:31:53;;;;;;;13.15;7.07;;;;;;;;;;10303359;28;20034;-78
2022/10/09 08:36:53;;;;;;;17.98;6.25;;;;;;;;;;10309583;28;20105;-75
2022/10/09 08:41:55;;;;;;;13.67;6.30;;;;;;;;;;10303425;28;20478;-77
2022/10/09 08:46:55;;;;;;;17.02;5.90;;;;;;;;;;10305964;28;20097;-80
2022/10/09 08:51:56;;;;;;;14.15;5.00;;;;;;;;;;10315639;28;20085;-74
2022/10/09 08:56:58;;;;;;;10.80;6.35;;;;;;;;;;10302766;28;20031;-75
2022/10/09 09:01:58;;;;;;;10.68;5.78;;;;;;;;;;10326083;28;20117;-76
2022/10/09 09:07:09;;;;;;;14.68;5.70;;;;;;;;;;10326493;28;20032;-74
2022/10/09 09:12:10;;;;;;;12.32;5.32;;;;;;;;;;10300589;28;20535;-75
2022/10/09 09:17:25;;;;;;;11.20;5.63;;;;;;;;;;10303243;28;20019;-83
2022/10/09 09:22:27;;;;;;;10.00;4.10;;;;;;;;;;10314066;28;20053;-78
2022/10/09 09:27:32;;;;;;;7.35;3.25;;;;;;;;;;10312812;28;20096;-77
2022/10/09 09:32:32;;;;;;;6.65;3.53;;;;;;;;;;10314918;28;20093;-75
2022/10/09 09:37:32;;;;;;;7.80;3.20;;;;;;;;;;10325412;28;20037;-75
2022/10/09 09:42:33;;;;;;;5.32;3.70;;;;;;;;;;10323009;28;20636;-74
2022/10/09 09:47:42;;;;;;;8.10;3.60;;;;;;;;;;10323349;28;20405;-75
2022/10/09 09:52:45;;;;;;;6.60;2.90;;;;;;;;;;10314456;28;20585;-80
2022/10/09 09:57:45;;;;;;;11.23;3.35;;;;;;;;;;10298446;28;20105;-79
2022/10/09 10:02:45;;;;;;;3.90;1.95;;;;;;;;;;10299839;28;20033;-80
2022/10/09 10:07:48;;;;;;;3.90;2.63;;;;;;;;;;10298645;28;20023;-76
2022/10/09 10:12:52;;;;;;;7.97;2.15;;;;;;;;;;10299889;28;20034;-79
2022/10/09 10:18:03;;;;;;;10.45;2.72;;;;;;;;;;10323157;28;20509;-76
2022/10/09 10:23:03;;;;;;;5.85;1.88;;;;;;;;;;10298696;28;20018;-74
2022/10/09 10:28:07;;;;;;;4.93;1.88;;;;;;;;;;10299302;28;20048;-79
2022/10/09 10:33:36;;;;;;;3.10;1.95;;;;;;;;;;10325139;28;20370;-76
2022/10/09 10:38:48;;;;;;;3.22;1.75;;;;;;;;;;10284286;28;20041;-80
2022/10/09 10:43:50;;;;;;;5.85;2.00;;;;;;;;;;10294012;28;20029;-75
2022/10/09 10:48:51;;;;;;;6.65;2.10;;;;;;;;;;10299944;28;20022;-79
2022/10/09 10:54:03;;;;;;;4.95;2.10;;;;;;;;;;10296078;28;20023;-75
2022/10/09 10:59:10;;;;;;;3.20;2.13;;;;;;;;;;10323181;28;20022;-74
2022/10/09 11:04:10;;;;;;;5.80;1.92;;;;;;;;;;10294906;28;20058;-84
2022/10/09 11:09:20;;;;;;;7.45;1.88;;;;;;;;;;10299827;28;20038;-81
2022/10/09 11:14:20;;;;;;;6.57;1.92;;;;;;;;;;10295484;28;20077;-75
2022/10/09 11:19:43;;;;;;;6.30;2.10;;;;;;;;;;10323630;28;20185;-80
2022/10/09 11:25:02;;;;;;;9.82;2.55;;;;;;;;;;10298107;28;20069;-79
2022/10/09 11:30:04;;;;;;;7.25;2.88;;;;;;;;;;10298337;28;20368;-74
2022/10/09 11:35:11;;;;;;;5.93;3.20;;;;;;;;;;10306189;28;20015;-79
2022/10/09 11:40:16;;;;;;;7.72;3.13;;;;;;;;;;10301008;28;20110;-75
2022/10/09 11:45:38;;;;;;;10.75;3.42;;;;;;;;;;10299873;28;20023;-80
2022/10/09 11:50:43;;;;;;;7.80;3.13;;;;;;;;;;10303656;28;20027;-75
2022/10/09 11:55:43;;;;;;;4.78;3.22;;;;;;;;;;10329927;28;20057;-79
2022/10/09 12:00:45;;;;;;;8.53;3.60;;;;;;;;;;10312400;28;20153;-81
2022/10/09 12:05:46;;;;;;;5.13;2.97;;;;;;;;;;10298118;28;20488;-78
2022/10/09 12:10:51;;;;;;;6.10;3.80;;;;;;;;;;10327789;28;20023;-78
2022/10/09 12:15:53;;;;;;;4.47;3.10;;;;;;;;;;10300466;28;20549;-77
2022/10/09 12:20:55;;;;;;;13.32;4.40;;;;;;;;;;10300831;28;20054;-74
2022/10/09 12:25:55;;;;;;;20.60;6.10;;;;;;;;;;10293784;28;20058;-74
2022/10/09 12:30:57;;;;;;;3.75;3.05;;;;;;;;;;10303845;28;20052;-76
2022/10/09 12:36:00;;;;;;;9.13;3.22;;;;;;;;;;10295423;28;20034;-76
2022/10/09 12:41:06;;;;;;;3.75;2.97;;;;;;;;;;10279916;28;20034;-75
2022/10/09 12:46:06;;;;;;;7.40;3.03;;;;;;;;;;10313156;28;20018;-77
2022/10/09 12:51:18;;;;;;;7.03;4.20;;;;;;;;;;10294640;28;20038;-76
2022/10/09 12:56:31;;;;;;;5.50;3.00;;;;;;;;;;10296383;28;20037;-76
2022/10/09 13:01:32;;;;;;;5.38;3.50;;;;;;;;;;10295384;28;20059;-76
2022/10/09 13:06:37;;;;;;;5.82;4.35;;;;;;;;;;10299513;28;20455;-76
2022/10/09 13:11:42;;;;;;;7.43;3.65;;;;;;;;;;10296475;28;20022;-81
2022/10/09 13:16:43;;;;;;;5.18;2.95;;;;;;;;;;10290377;28;20026;-81
2022/10/09 13:21:44;;;;;;;5.10;3.05;;;;;;;;;;10293607;28;20031;-78
2022/10/09 13:26:44;;;;;;;5.63;3.47;;;;;;;;;;10291458;28;20441;-75
2022/10/09 13:31:46;;;;;;;10.35;3.53;;;;;;;;;;10286913;28;20637;-80
2022/10/09 13:36:46;;;;;;;7.07;3.88;;;;;;;;;;10288181;28;20695;-78
2022/10/09 13:41:48;;;;;;;9.90;3.65;;;;;;;;;;10288888;28;20019;-75
2022/10/09 13:46:48;;;;;;;9.77;4.38;;;;;;;;;;10290683;28;20027;-75
2022/10/09 13:51:49;;;;;;;15.77;5.23;;;;;;;;;;10285555;28;20038;-73
2022/10/09 13:56:49;;;;;;;7.03;3.30;;;;;;;;;;10291988;28;20145;-74
2022/10/09 14:01:49;;;;;;;7.28;3.15;;;;;;;;;;10289679;28;20022;-77
2022/10/09 14:06:50;;;;;;;7.32;3.53;;;;;;;;;;10290370;28;20054;-73
2022/10/09 14:11:50;;;;;;;7.53;3.72;;;;;;;;;;10270569;28;20551;-73
2022/10/09 14:16:50;;;;;;;11.30;5.75;;;;;;;;;;10293943;28;20930;-75
2022/10/09 14:21:50;;;;;;;6.75;4.03;;;;;;;;;;10290100;28;20034;-75
2022/10/09 14:26:51;;;;;;;7.60;4.30;;;;;;;;;;10289573;28;20129;-75
2022/10/09 14:31:51;;;;;;;7.40;4.55;;;;;;;;;;10284966;28;20038;-78
2022/10/09 14:36:51;;;;;;;8.57;4.23;;;;;;;;;;10284863;28;20462;-75
2022/10/09 14:41:52;;;;;;;9.00;4.03;;;;;;;;;;10291292;28;20045;-74
2022/10/09 14:46:52;;;;;;;5.37;3.73;;;;;;;;;;10291428;28;20023;-79
2022/10/09 14:51:52;;;;;;;9.60;4.07;;;;;;;;;;10295991;28;20034;-76
2022/10/09 14:56:53;;;;;;;8.10;5.03;;;;;;;;;;10294516;28;20019;-79
2022/10/09 15:01:53;;;;;;;8.97;4.93;;;;;;;;;;10289578;28;20511;-73
2022/10/09 15:06:53;;;;;;;12.60;5.55;;;;;;;;;;10294610;28;20449;-74
2022/10/09 15:11:54;;;;;;;9.07;5.55;;;;;;;;;;10302268;28;20018;-74
2022/10/09 15:16:54;;;;;;;8.35;5.28;;;;;;;;;;10283036;28;20161;-74
2022/10/09 15:21:55;;;;;;;20.42;7.35;;;;;;;;;;10301145;28;20315;-73
2022/10/09 15:26:55;;;;;;;13.73;7.47;;;;;;;;;;10304813;28;20138;-73
2022/10/09 15:31:55;;;;;;;13.73;7.93;;;;;;;;;;10305472;28;20050;-74
2022/10/09 15:36:55;;;;;;;11.27;7.53;;;;;;;;;;10302535;28;20025;-74
2022/10/09 15:41:56;;;;;;;15.35;8.80;;;;;;;;;;10301865;28;20417;-73
2022/10/09 15:46:56;;;;;;;13.95;8.93;;;;;;;;;;10301834;28;20106;-74
2022/10/09 15:51:56;;;;;;;15.50;8.38;;;;;;;;;;10301354;28;20018;-75
2022/10/09 15:56:57;;;;;;;16.17;8.30;;;;;;;;;;10302590;28;20018;-75
2022/10/09 16:01:57;;;;;;;17.87;10.23;;;;;;;;;;10316389;23;20114;-76
2022/10/09 16:06:57;;;;;;;20.25;13.07;;;;;;;;;;10279679;28;20113;-74
2022/10/09 16:11:57;;;;;;;28.25;13.48;;;;;;;;;;10282874;28;20026;-75
2022/10/09 16:16:58;;;;;;;18.85;13.18;;;;;;;;;;10282362;28;20031;-75
2022/10/09 16:21:58;;;;;;;20.42;13.30;;;;;;;;;;10281071;28;20027;-74
2022/10/09 16:26:58;;;;;;;22.20;14.88;;;;;;;;;;10282212;28;20109;-75
2022/10/09 16:31:58;;;;;;;16.57;13.30;;;;;;;;;;10279989;28;20026;-73
2022/10/09 16:37:01;;;;;;;22.23;16.05;;;;;;;;;;10276522;28;20026;-73
2022/10/09 16:42:02;;;;;;;21.75;14.52;;;;;;;;;;10274996;28;20043;-73
2022/10/09 16:47:02;;;;;;;20.13;14.65;;;;;;;;;;10274693;28;20031;-74
2022/10/09 16:52:03;;;;;;;21.70;15.10;;;;;;;;;;10276854;28;20034;-75
2022/10/09 16:57:03;;;;;;;23.88;15.85;;;;;;;;;;10277224;28;20065;-74
2022/10/09 17:02:04;;;;;;;22.80;15.48;;;;;;;;;;10274130;28;20868;-73
2022/10/09 17:07:04;;;;;;;24.80;15.70;;;;;;;;;;10277371;28;20022;-75
2022/10/09 17:12:08;;;;;;;28.77;16.80;;;;;;;;;;10276251;28;20035;-80
2022/10/09 17:17:09;;;;;;;24.48;17.83;;;;;;;;;;10275670;28;20660;-78
2022/10/09 17:22:09;;;;;;;22.33;16.35;;;;;;;;;;10275718;28;20109;-79
2022/10/09 17:27:09;;;;;;;22.02;15.80;;;;;;;;;;10273720;28;20108;-78
2022/10/09 17:32:11;;;;;;;24.33;18.20;;;;;;;;;;10273228;28;20026;-78
2022/10/09 17:37:12;;;;;;;24.85;18.35;;;;;;;;;;10274125;28;20035;-80
2022/10/09 17:42:13;;;;;;;25.40;18.45;;;;;;;;;;10279066;28;20053;-80
2022/10/09 17:47:13;;;;;;;25.70;17.48;;;;;;;;;;10277444;28;20022;-82
2022/10/09 17:52:13;;;;;;;27.75;19.17;;;;;;;;;;10273437;28;20118;-79
2022/10/09 17:57:14;;;;;;;32.00;19.50;;;;;;;;;;10268937;28;20019;-79
2022/10/09 18:02:14;;;;;;;30.88;19.08;;;;;;;;;;10274300;28;20043;-80
2022/10/09 18:07:18;;;;;;;28.73;18.65;;;;;;;;;;10268351;28;20014;-80
2022/10/09 18:12:18;;;;;;;27.10;18.85;;;;;;;;;;10271017;28;20027;-80
2022/10/09 18:17:18;;;;;;;28.27;20.20;;;;;;;;;;10265792;28;20023;-74
2022/10/09 18:22:19;;;;;;;26.60;18.13;;;;;;;;;;10268511;28;20417;-73
2022/10/09 18:27:19;;;;;;;27.00;18.10;;;;;;;;;;10266401;28;20027;-73
2022/10/09 18:32:20;;;;;;;24.40;19.30;;;;;;;;;;10265174;28;20026;-73
2022/10/09 18:37:20;;;;;;;30.77;20.70;;;;;;;;;;10262443;28;20015;-78
2022/10/09 18:42:20;;;;;;;183.55;170.88;;;;;;;;;;10272562;28;20047;-79
2022/10/09 18:47:24;;;;;;;26.92;18.45;;;;;;;;;;10283490;23;20071;-74
2022/10/09 18:52:24;;;;;;;28.55;20.25;;;;;;;;;;10246656;28;20030;-74
2022/10/09 18:57:25;;;;;;;130.67;121.13;;;;;;;;;;10252719;28;20196;-73
2022/10/09 19:02:25;;;;;;;29.63;19.55;;;;;;;;;;10263388;28;20386;-75
2022/10/09 19:07:26;;;;;;;33.33;21.43;;;;;;;;;;10257783;28;20377;-75
2022/10/09 19:12:26;;;;;;;35.78;22.48;;;;;;;;;;10251090;28;20038;-75
2022/10/09 19:17:26;;;;;;;35.60;23.65;;;;;;;;;;10254140;28;20049;-74
2022/10/09 19:22:27;;;;;;;35.92;24.13;;;;;;;;;;10249630;28;20033;-75
2022/10/09 19:27:27;;;;;;;48.42;24.20;;;;;;;;;;10280373;28;20031;-74
2022/10/09 19:32:27;;;;;;;36.47;23.13;;;;;;;;;;10271002;28;20029;-74
2022/10/09 19:37:28;;;;;;;34.90;22.90;;;;;;;;;;10274077;28;20056;-74
2022/10/09 19:42:28;;;;;;;28.67;21.95;;;;;;;;;;10265821;28;20039;-74
2022/10/09 19:47:28;;;;;;;36.13;22.75;;;;;;;;;;10251767;28;20059;-75
2022/10/09 19:52:28;;;;;;;33.77;21.23;;;;;;;;;;10252122;28;20042;-75
2022/10/09 19:57:29;;;;;;;29.40;19.98;;;;;;;;;;10281617;28;20544;-75
2022/10/09 20:02:29;;;;;;;28.38;18.40;;;;;;;;;;10261264;28;20089;-75
2022/10/09 20:07:29;;;;;;;29.27;16.00;;;;;;;;;;10252206;28;20027;-74
2022/10/09 20:12:30;;;;;;;27.10;17.75;;;;;;;;;;10262478;28;20033;-74
2022/10/09 20:17:30;;;;;;;27.75;19.67;;;;;;;;;;10287288;28;20049;-76
2022/10/09 20:22:30;;;;;;;25.70;18.35;;;;;;;;;;10284166;28;20078;-73
2022/10/09 20:27:31;;;;;;;29.20;19.27;;;;;;;;;;10257000;28;20023;-74
2022/10/09 20:32:35;;;;;;;35.08;20.30;;;;;;;;;;10279418;28;20042;-75
2022/10/09 20:37:38;;;;;;;22.80;16.13;;;;;;;;;;10253140;28;20210;-75
2022/10/09 20:42:39;;;;;;;29.27;18.50;;;;;;;;;;10257311;28;20034;-75
2022/10/09 20:47:39;;;;;;;26.38;17.88;;;;;;;;;;10283321;28;20072;-76
2022/10/09 20:52:39;;;;;;;24.07;15.47;;;;;;;;;;10257546;28;20055;-75
2022/10/09 20:57:39;;;;;;;26.92;17.13;;;;;;;;;;10284820;28;20023;-78
2022/10/09 21:02:40;;;;;;;24.88;15.55;;;;;;;;;;10263482;28;20046;-77
2022/10/09 21:07:40;;;;;;;23.70;16.30;;;;;;;;;;10259229;28;20019;-77
2022/10/09 21:12:40;;;;;;;25.92;13.80;;;;;;;;;;10259591;28;20384;-79
2022/10/09 21:17:42;;;;;;;20.17;13.98;;;;;;;;;;10268097;28;20138;-78
2022/10/09 21:22:42;;;;;;;20.63;13.50;;;;;;;;;;10260803;28;20417;-80
2022/10/09 21:27:42;;;;;;;22.27;14.13;;;;;;;;;;10259440;28;20027;-79
2022/10/09 21:32:43;;;;;;;22.90;14.43;;;;;;;;;;10259709;28;20113;-78
2022/10/09 21:37:47;;;;;;;23.52;14.48;;;;;;;;;;10286982;28;20153;-78
2022/10/09 21:42:47;;;;;;;34.03;17.75;;;;;;;;;;10271987;28;20031;-80
2022/10/09 21:47:47;;;;;;;25.77;16.08;;;;;;;;;;10260269;28;20039;-80
2022/10/09 21:52:48;;;;;;;28.02;16.23;;;;;;;;;;10257009;28;20089;-77
2022/10/09 21:57:48;;;;;;;25.30;14.68;;;;;;;;;;10259010;28;20019;-78
2022/10/09 22:02:48;;;;;;;26.05;15.23;;;;;;;;;;10260166;28;20065;-78
2022/10/09 22:07:49;;;;;;;26.20;16.17;;;;;;;;;;10259530;28;20030;-76
2022/10/09 22:12:49;;;;;;;26.17;16.05;;;;;;;;;;10258032;28;20062;-78
2022/10/09 22:17:49;;;;;;;30.13;16.75;;;;;;;;;;10261046;28;20026;-74
2022/10/09 22:22:50;;;;;;;22.70;15.65;;;;;;;;;;10257879;28;20033;-74
2022/10/09 22:27:50;;;;;;;26.40;17.50;;;;;;;;;;10407310;23;20520;-74
2022/10/09 22:32:53;;;;;;;27.10;17.65;;;;;;;;;;10302942;28;21507;-74
2022/10/09 22:37:53;;;;;;;29.63;18.48;;;;;;;;;;10304163;28;20102;-76
2022/10/09 22:42:54;;;;;;;26.70;18.65;;;;;;;;;;10309737;28;20032;-76
2022/10/09 22:47:54;;;;;;;32.45;17.48;;;;;;;;;;10324528;28;20060;-78
2022/10/09 22:52:54;;;;;;;29.20;18.25;;;;;;;;;;10316672;28;20026;-73
2022/10/09 22:57:55;;;;;;;35.53;17.30;;;;;;;;;;10317183;28;20033;-74
2022/10/09 23:02:55;;;;;;;28.05;17.58;;;;;;;;;;10317436;28;20500;-75
2022/10/09 23:07:55;;;;;;;27.17;16.92;;;;;;;;;;10315600;28;20018;-78
2022/10/09 23:12:56;;;;;;;29.17;17.48;;;;;;;;;;10318349;28;20022;-76
2022/10/09 23:17:56;;;;;;;30.25;16.88;;;;;;;;;;10319811;28;20023;-75
2022/10/09 23:22:56;;;;;;;27.13;16.52;;;;;;;;;;10316061;28;20579;-75
2022/10/09 23:27:56;;;;;;;27.48;17.23;;;;;;;;;;10318956;28;20137;-79
2022/10/09 23:32:56;;;;;;;24.65;15.90;;;;;;;;;;10326393;28;20026;-78
2022/10/09 23:37:57;;;;;;;24.70;15.38;;;;;;;;;;10327324;28;20026;-75
2022/10/09 23:42:57;;;;;;;23.67;15.48;;;;;;;;;;10321552;28;20034;-79
2022/10/09 23:47:57;;;;;;;25.60;15.52;;;;;;;;;;10325378;28;20026;-74
2022/10/09 23:52:57;;;;;;;26.13;15.05;;;;;;;;;;10326060;28;20393;-74
2022/10/09 23:57:58;;;;;;;23.73;15.68;;;;;;;;;;10324646;28;20481;-80
